Yuho Maru No.3 — JD2491 — position and weather

sailwx.info

Track history (hours):
 
Tides and Currents Weather Stations Pressure Air Temp Water Temp Dewpoint Dewpoint Depression Visibility Wind Speed Wind Dir Waves Ship Positions

Yuho Maru No.3

Last reported at 2016-Aug-27 16:33 UTC. Time now 2016-Aug-27 16:55 UTC.
Position N 35°36' E 140°06'.

Length 65 m; draft 4.2 m.

Type: Tanker. MMSI: 431000336.

Date/timePositionNaut miles runAvg speedWind from/ knotsBaromVisibWave heightAir tempDewpointWater temp
2016-Aug-27 16:33N 35°36' E 140°06'0 0.0
2016-Aug-27 15:33N 35°36' E 140°06'0 0.0
2016-Aug-27 14:33N 35°36' E 140°06'0 0.0
2016-Aug-27 13:33N 35°36' E 140°06'0 0.0
2016-Aug-27 12:33N 35°36' E 140°06'0 0.0
2016-Aug-27 11:33N 35°36' E 140°06'0 0.0
2016-Aug-27 10:32N 35°36' E 140°06'0 0.0
2016-Aug-27 09:32N 35°36' E 140°06'0 0.0
2016-Aug-27 08:33N 35°36' E 140°06'0 0.0
2016-Aug-27 07:33N 35°36' E 140°06'0 0.0
2016-Aug-27 06:33N 35°36' E 140°06'0 0.0
2016-Aug-27 04:32N 35°36' E 140°06'0 0.0
2016-Aug-27 03:33N 35°36' E 140°06'0 0.0
2016-Aug-27 02:33N 35°36' E 140°06'0 0.0
2016-Aug-27 01:33N 35°36' E 140°06'0 0.0
2016-Aug-27 00:33N 35°36' E 140°06'0 0.0
2016-Aug-26 23:33N 35°36' E 140°06'8 8.4
2016-Aug-26 22:33N 35°31' E 139°58'3 2.8
2016-Aug-26 21:33N 35°29' E 139°56'0 0.0
2016-Aug-26 20:33N 35°29' E 139°56'0 0.0
2016-Aug-26 19:33N 35°29' E 139°56'0 0.0
2016-Aug-26 18:33N 35°29' E 139°56'0 0.0
2016-Aug-26 17:33N 35°29' E 139°56'0 0.0
2016-Aug-26 16:33N 35°29' E 139°56'0 0.0
2016-Aug-26 15:33N 35°29' E 139°56'0 0.0
2016-Aug-26 14:33N 35°29' E 139°56'0 0.0
2016-Aug-26 13:33N 35°29' E 139°56'0 0.0
2016-Aug-26 12:33N 35°29' E 139°56'0 0.0
2016-Aug-26 11:33N 35°29' E 139°56'0 0.0
2016-Aug-26 10:34N 35°29' E 139°56'0 0.0
2016-Aug-26 09:33N 35°29' E 139°56'0 0.0
2016-Aug-26 08:33N 35°29' E 139°56'4 4.1
2016-Aug-26 07:33N 35°29' E 140°01'0 0.4
2016-Aug-26 06:33N 35°28' E 140°01'0 0.0
2016-Aug-26 04:33N 35°28' E 140°01'0 0.0
2016-Aug-26 03:33N 35°28' E 140°01'5 4.6
2016-Aug-26 02:33N 35°30' E 139°56'9 8.9
2016-Aug-26 01:33N 35°31' E 139°45'0 0.0
2016-Aug-26 00:33N 35°31' E 139°45'0 0.0
2016-Aug-25 23:33N 35°31' E 139°45'2 1.6
2016-Aug-25 22:33N 35°30' E 139°47'1312.7
2016-Aug-25 21:33N 35°35' E 140°01'4 4.3
2016-Aug-25 20:33N 35°36' E 140°06'0 0.0
2016-Aug-25 19:33N 35°36' E 140°06'0 0.0
2016-Aug-25 18:33N 35°36' E 140°06'0 0.0
2016-Aug-25 17:33N 35°36' E 140°06'0 0.0
2016-Aug-25 16:33N 35°36' E 140°06'0 0.0
2016-Aug-25 15:33N 35°36' E 140°06'0 0.0
2016-Aug-25 14:33N 35°36' E 140°06'0 0.0
2016-Aug-25 13:33N 35°36' E 140°06'0 0.0
2016-Aug-25 12:33N 35°36' E 140°06'0 0.0
2016-Aug-25 11:33N 35°36' E 140°06'0 0.0
2016-Aug-25 10:33N 35°36' E 140°06'0 0.0
2016-Aug-25 09:33N 35°36' E 140°06'0 0.0
2016-Aug-25 08:33N 35°36' E 140°06'0 0.0
2016-Aug-25 07:33N 35°36' E 140°06'0 0.0
2016-Aug-25 06:33N 35°36' E 140°06'0 0.0
2016-Aug-25 04:34N 35°36' E 140°06'1111.3
2016-Aug-25 03:33N 35°32' E 139°54'6 6.0
2016-Aug-25 02:34N 35°31' E 139°46'0 0.0
2016-Aug-25 01:33N 35°31' E 139°46'0 0.0
2016-Aug-25 00:33N 35°31' E 139°46'0 0.0
2016-Aug-24 23:33N 35°31' E 139°46'2 1.6
2016-Aug-24 22:33N 35°30' E 139°48'1 0.9
2016-Aug-24 21:33N 35°29' E 139°48'0 0.0
2016-Aug-24 20:33N 35°29' E 139°48'0 0.0
2016-Aug-24 19:33N 35°29' E 139°48'0 0.0
2016-Aug-24 18:33N 35°29' E 139°48'0 0.0
2016-Aug-24 17:33N 35°29' E 139°48'0 0.0
2016-Aug-24 16:33N 35°29' E 139°48'0 0.0
2016-Aug-24 15:33N 35°29' E 139°48'0 0.0
2016-Aug-24 14:33N 35°29' E 139°48'0 0.0
2016-Aug-24 13:33N 35°29' E 139°48'0 0.0
2016-Aug-24 12:33N 35°29' E 139°48'0 0.1
2016-Aug-24 11:33N 35°29' E 139°48'0 0.0
2016-Aug-24 10:34N 35°29' E 139°48'0 0.0
2016-Aug-24 09:33N 35°29' E 139°48'0 0.0
2016-Aug-24 08:33N 35°29' E 139°48'2 2.4
2016-Aug-24 07:33N 35°26' E 139°48'1110.6
2016-Aug-24 06:33N 35°16' E 139°47'  
Track history (hours):
 
Tides and Currents Weather Stations Pressure Air Temp Water Temp Dewpoint Dewpoint Depression Visibility Wind Speed Wind Dir Waves Ship Positions

Yuho Maru No.3

Last reported at 2016-Aug-27 16:33 UTC. Time now 2016-Aug-27 16:55 UTC.
Position N 35°36' E 140°06'.

Length 65 m; draft 4.2 m.

Type: Tanker. MMSI: 431000336.

Date/timePositionNaut miles runAvg speedWind from/ knotsBaromVisibWave heightAir tempDewpointWater temp
2016-Aug-27 16:33N 35°36' E 140°06'0 0.0
2016-Aug-27 15:33N 35°36' E 140°06'0 0.0
2016-Aug-27 14:33N 35°36' E 140°06'0 0.0
2016-Aug-27 13:33N 35°36' E 140°06'0 0.0
2016-Aug-27 12:33N 35°36' E 140°06'0 0.0
2016-Aug-27 11:33N 35°36' E 140°06'0 0.0
2016-Aug-27 10:32N 35°36' E 140°06'0 0.0
2016-Aug-27 09:32N 35°36' E 140°06'0 0.0
2016-Aug-27 08:33N 35°36' E 140°06'0 0.0
2016-Aug-27 07:33N 35°36' E 140°06'0 0.0
2016-Aug-27 06:33N 35°36' E 140°06'0 0.0
2016-Aug-27 04:32N 35°36' E 140°06'0 0.0
2016-Aug-27 03:33N 35°36' E 140°06'0 0.0
2016-Aug-27 02:33N 35°36' E 140°06'0 0.0
2016-Aug-27 01:33N 35°36' E 140°06'0 0.0
2016-Aug-27 00:33N 35°36' E 140°06'0 0.0
2016-Aug-26 23:33N 35°36' E 140°06'8 8.4
2016-Aug-26 22:33N 35°31' E 139°58'3 2.8
2016-Aug-26 21:33N 35°29' E 139°56'0 0.0
2016-Aug-26 20:33N 35°29' E 139°56'0 0.0
2016-Aug-26 19:33N 35°29' E 139°56'0 0.0
2016-Aug-26 18:33N 35°29' E 139°56'0 0.0
2016-Aug-26 17:33N 35°29' E 139°56'0 0.0
2016-Aug-26 16:33N 35°29' E 139°56'0 0.0
2016-Aug-26 15:33N 35°29' E 139°56'0 0.0
2016-Aug-26 14:33N 35°29' E 139°56'0 0.0
2016-Aug-26 13:33N 35°29' E 139°56'0 0.0
2016-Aug-26 12:33N 35°29' E 139°56'0 0.0
2016-Aug-26 11:33N 35°29' E 139°56'0 0.0
2016-Aug-26 10:34N 35°29' E 139°56'0 0.0
2016-Aug-26 09:33N 35°29' E 139°56'0 0.0
2016-Aug-26 08:33N 35°29' E 139°56'4 4.1
2016-Aug-26 07:33N 35°29' E 140°01'0 0.4
2016-Aug-26 06:33N 35°28' E 140°01'0 0.0
2016-Aug-26 04:33N 35°28' E 140°01'0 0.0
2016-Aug-26 03:33N 35°28' E 140°01'5 4.6
2016-Aug-26 02:33N 35°30' E 139°56'9 8.9
2016-Aug-26 01:33N 35°31' E 139°45'0 0.0
2016-Aug-26 00:33N 35°31' E 139°45'0 0.0
2016-Aug-25 23:33N 35°31' E 139°45'2 1.6
2016-Aug-25 22:33N 35°30' E 139°47'1312.7
2016-Aug-25 21:33N 35°35' E 140°01'4 4.3
2016-Aug-25 20:33N 35°36' E 140°06'0 0.0
2016-Aug-25 19:33N 35°36' E 140°06'0 0.0
2016-Aug-25 18:33N 35°36' E 140°06'0 0.0
2016-Aug-25 17:33N 35°36' E 140°06'0 0.0
2016-Aug-25 16:33N 35°36' E 140°06'0 0.0
2016-Aug-25 15:33N 35°36' E 140°06'0 0.0
2016-Aug-25 14:33N 35°36' E 140°06'0 0.0
2016-Aug-25 13:33N 35°36' E 140°06'0 0.0
2016-Aug-25 12:33N 35°36' E 140°06'0 0.0
2016-Aug-25 11:33N 35°36' E 140°06'0 0.0
2016-Aug-25 10:33N 35°36' E 140°06'0 0.0
2016-Aug-25 09:33N 35°36' E 140°06'0 0.0
2016-Aug-25 08:33N 35°36' E 140°06'0 0.0
2016-Aug-25 07:33N 35°36' E 140°06'0 0.0
2016-Aug-25 06:33N 35°36' E 140°06'0 0.0
2016-Aug-25 04:34N 35°36' E 140°06'1111.3
2016-Aug-25 03:33N 35°32' E 139°54'6 6.0
2016-Aug-25 02:34N 35°31' E 139°46'0 0.0
2016-Aug-25 01:33N 35°31' E 139°46'0 0.0
2016-Aug-25 00:33N 35°31' E 139°46'0 0.0
2016-Aug-24 23:33N 35°31' E 139°46'2 1.6
2016-Aug-24 22:33N 35°30' E 139°48'1 0.9
2016-Aug-24 21:33N 35°29' E 139°48'0 0.0
2016-Aug-24 20:33N 35°29' E 139°48'0 0.0
2016-Aug-24 19:33N 35°29' E 139°48'0 0.0
2016-Aug-24 18:33N 35°29' E 139°48'0 0.0
2016-Aug-24 17:33N 35°29' E 139°48'0 0.0
2016-Aug-24 16:33N 35°29' E 139°48'0 0.0
2016-Aug-24 15:33N 35°29' E 139°48'0 0.0
2016-Aug-24 14:33N 35°29' E 139°48'0 0.0
2016-Aug-24 13:33N 35°29' E 139°48'0 0.0
2016-Aug-24 12:33N 35°29' E 139°48'0 0.1
2016-Aug-24 11:33N 35°29' E 139°48'0 0.0
2016-Aug-24 10:34N 35°29' E 139°48'0 0.0
2016-Aug-24 09:33N 35°29' E 139°48'0 0.0
2016-Aug-24 08:33N 35°29' E 139°48'2 2.4
2016-Aug-24 07:33N 35°26' E 139°48'1110.6
2016-Aug-24 06:33N 35°16' E 139°47'  

Dump ship's entire track history